»·PEaware :: UAL384 KSAN-KSFO

UAL384 :: KSAN-KSFO

FLIGHT INFORMATION

Flight Status: Arrived
Operator:
United Airlines
More flights by this operator :: More flights under this callsign
Pilot: Anonymous 15639 (15639)
Aircraft: BOEING 737-800
(B738)
More flights by this aircraft type
Origin: KSAN San Diego Intl-Lindbergh
United States
Destination: KSFO San Francisco Intl
United States
More flights between these airports :: More routes between these airports
Route: PADRZ2 IKAYE RIZIN SPLNT STOKD SERFR SERFR3
File this flight plan on PilotEdge
Remarks:
Altitude:
(Current/Filed)
38,000ft
Speed:
(Current/Filed)
456kts
Departed: 07-Sep-18 08:32 AM
Arrived: 07-Sep-18 09:39 AM
Distance/Time
Traveled:
388nm/1:07
Distance/Time
To Go:
Arrived

Flight Plot

Page will automatically refresh every two minutes.

Flight plan parsing failed; only flown route is shown


Map Options




Map Legend


Flown Route
Filed Route
Departure Airport
Arrival Airport
Navaid (VOR, NDB)
Fix

Horizontal Profiles

Position Reports

Time Latitude Longitude Heading Altitude Ground
Speed
07-Sep-18 08:03 32.733265 -117.196042 200 25ft 0kts
07-Sep-18 08:04 32.733265 -117.196042 200 25ft 0kts
07-Sep-18 08:05 32.733265 -117.196042 200 25ft 0kts
07-Sep-18 08:06 32.733265 -117.196042 200 25ft 0kts
07-Sep-18 08:07 32.733265 -117.196042 200 25ft 0kts
07-Sep-18 08:08 32.733265 -117.196042 200 25ft 0kts
07-Sep-18 08:09 32.733265 -117.196042 200 25ft 0kts
07-Sep-18 08:10 32.733265 -117.196042 200 25ft 0kts
07-Sep-18 08:11 32.733265 -117.196042 200 25ft 0kts
07-Sep-18 08:12 32.733265 -117.196042 200 25ft 0kts
07-Sep-18 08:13 32.733265 -117.196042 200 25ft 0kts
07-Sep-18 08:14 32.733265 -117.196042 200 25ft 0kts
07-Sep-18 08:15 32.733265 -117.196042 200 25ft 0kts
07-Sep-18 08:16 32.733265 -117.196042 200 25ft 0kts
07-Sep-18 08:17 32.733265 -117.196042 200 25ft 0kts
07-Sep-18 08:18 32.733265 -117.196042 200 25ft 0kts
07-Sep-18 08:20 32.733265 -117.196042 200 25ft 0kts
07-Sep-18 08:21 32.733265 -117.196042 200 25ft 0kts
07-Sep-18 08:22 32.733265 -117.196042 200 25ft 0kts
07-Sep-18 08:23 32.733585 -117.195905 200 25ft 2kts
07-Sep-18 08:24 32.734063 -117.196018 118 25ft 2kts
07-Sep-18 08:25 32.734104 -117.196159 104 25ft 0kts
07-Sep-18 08:26 32.734104 -117.196159 104 25ft 0kts
07-Sep-18 08:27 32.734046 -117.195903 105 25ft 5kts
07-Sep-18 08:28 32.733369 -117.193116 106 25ft 9kts
07-Sep-18 08:29 32.732542 -117.189777 106 24ft 11kts
07-Sep-18 08:30 32.731639 -117.186048 105 25ft 12kts
07-Sep-18 08:31 32.730691 -117.182113 106 25ft 12kts
07-Sep-18 08:32 32.729786 -117.178409 106 25ft 8kts
07-Sep-18 08:33 32.729873 -117.175671 14 25ft 5kts
07-Sep-18 08:34 32.734743 -117.194632 288 27ft 159kts
07-Sep-18 08:35 32.756322 -117.244480 306 2165ft 192kts
07-Sep-18 08:36 32.794533 -117.309917 305 4019ft 267kts
07-Sep-18 08:37 32.840271 -117.382349 308 7032ft 284kts
07-Sep-18 08:38 32.889252 -117.458152 307 9862ft 297kts
07-Sep-18 08:39 32.942777 -117.541195 306 12106ft 329kts
07-Sep-18 08:40 32.999599 -117.629808 307 14696ft 352kts
07-Sep-18 08:41 33.060324 -117.724707 309 16939ft 366kts
07-Sep-18 08:42 33.135875 -117.804599 322 19226ft 368kts
07-Sep-18 08:43 33.213232 -117.885446 317 21347ft 378kts
07-Sep-18 08:44 33.288375 -117.974891 317 23391ft 386kts
07-Sep-18 08:45 33.365231 -118.066678 317 25321ft 395kts
07-Sep-18 08:46 33.443358 -118.160231 317 27148ft 403kts
07-Sep-18 08:47 33.522858 -118.255687 317 28884ft 410kts
07-Sep-18 08:48 33.603182 -118.352437 316 30751ft 408kts
07-Sep-18 08:49 33.682409 -118.448099 316 32702ft 401kts
07-Sep-18 08:50 33.759853 -118.541859 316 34531ft 395kts
07-Sep-18 08:51 33.836685 -118.635126 316 36088ft 392kts
07-Sep-18 08:52 33.912410 -118.727397 315 37372ft 391kts
07-Sep-18 08:53 33.989031 -118.821042 315 38069ft 401kts
07-Sep-18 08:54 34.069534 -118.919640 314 38061ft 422kts
07-Sep-18 08:55 34.149916 -119.021868 305 38069ft 422kts
07-Sep-18 08:56 34.212313 -119.142472 302 38064ft 424kts
07-Sep-18 08:57 34.273960 -119.263341 302 38064ft 424kts
07-Sep-18 08:58 34.335735 -119.384028 302 38063ft 424kts
07-Sep-18 08:59 34.397664 -119.504757 302 38062ft 424kts
07-Sep-18 09:00 34.474513 -119.611994 314 38061ft 424kts
07-Sep-18 09:01 34.557088 -119.713431 314 38065ft 424kts
07-Sep-18 09:02 34.639521 -119.815239 314 38065ft 424kts
07-Sep-18 09:03 34.721595 -119.917089 314 38068ft 424kts
07-Sep-18 09:04 34.803973 -120.019471 314 38071ft 424kts
07-Sep-18 09:05 34.886057 -120.121473 314 38071ft 423kts
07-Sep-18 09:06 34.967904 -120.223102 313 38069ft 419kts
07-Sep-18 09:07 35.049070 -120.323817 313 38068ft 414kts
07-Sep-18 09:08 35.131318 -120.421308 316 38072ft 416kts
07-Sep-18 09:09 35.216256 -120.516500 316 38071ft 415kts
07-Sep-18 09:10 35.301070 -120.611810 316 38070ft 415kts
07-Sep-18 09:11 35.385904 -120.707340 315 38079ft 415kts
07-Sep-18 09:12 35.470492 -120.802647 316 38097ft 415kts
07-Sep-18 09:13 35.561201 -120.890508 321 38110ft 417kts
07-Sep-18 09:14 35.653357 -120.976073 321 38109ft 416kts
07-Sep-18 09:15 35.745563 -121.062029 320 38109ft 419kts
07-Sep-18 09:16 35.838719 -121.149068 320 37829ft 424kts
07-Sep-18 09:17 35.931727 -121.236004 320 36816ft 419kts
07-Sep-18 09:18 36.024476 -121.322727 320 35811ft 421kts
07-Sep-18 09:19 36.121620 -121.406433 325 33404ft 434kts
07-Sep-18 09:20 36.221444 -121.484289 325 30361ft 425kts
07-Sep-18 09:21 36.318378 -121.560065 325 27873ft 404kts
07-Sep-18 09:22 36.410538 -121.632332 326 25506ft 386kts
07-Sep-18 09:23 36.498439 -121.701514 325 23243ft 371kts
07-Sep-18 09:24 36.585205 -121.770113 326 21002ft 367kts
07-Sep-18 09:25 36.669069 -121.836483 326 18874ft 352kts
07-Sep-18 09:26 36.751804 -121.897503 342 16708ft 345kts
07-Sep-18 09:27 36.843651 -121.923791 346 14709ft 335kts
07-Sep-18 09:28 36.932874 -121.948422 346 12781ft 326kts
07-Sep-18 09:29 37.018311 -121.978814 342 11441ft 309kts
07-Sep-18 09:30 37.096745 -122.009379 342 10544ft 283kts
07-Sep-18 09:31 37.169554 -122.037833 342 9633ft 273kts
07-Sep-18 09:32 37.241298 -122.065939 342 8589ft 270kts
07-Sep-18 09:33 37.311870 -122.093688 342 7346ft 266kts
07-Sep-18 09:34 37.379849 -122.120452 343 5907ft 260kts
07-Sep-18 09:35 37.447236 -122.143761 344 4611ft 248kts
07-Sep-18 09:36 37.510854 -122.165601 344 3457ft 225kts
07-Sep-18 09:37 37.550571 -122.213687 299 2555ft 182kts
07-Sep-18 09:38 37.571755 -122.263282 298 1654ft 150kts
07-Sep-18 09:39 37.591261 -122.309619 298 885ft 149kts
07-Sep-18 09:40 37.610643 -122.355803 297 128ft 149kts
07-Sep-18 09:41 37.619523 -122.379499 226 21ft 9kts
07-Sep-18 09:42 37.617486 -122.379420 175 21ft 8kts
07-Sep-18 09:43 37.614575 -122.380976 207 21ft 13kts
07-Sep-18 09:44 37.613934 -122.382982 17 21ft 3kts
07-Sep-18 09:45 37.614332 -122.382727 28 21ft 0kts
07-Sep-18 09:46 37.614332 -122.382727 28 21ft 0kts
07-Sep-18 09:47 37.614332 -122.382727 28 21ft 0kts
07-Sep-18 09:48 37.614332 -122.382727 28 21ft 0kts
07-Sep-18 09:49 37.614332 -122.382727 28 21ft 0kts

Navigation Log

Ident Type
Flight plan parsing failed, navigation log unavailable